Time;durP1;ratioP1;P1;durP2;ratioP2;P2;SDS_P1;SDS_P2;PMS_P1;PMS_P2;Temp;Humidity;BMP_temperature;BMP_pressure;BME280_temperature;BME280_humidity;BME280_pressure;Samples;Min_cycle;Max_cycle;Signal;HPM_P1;HPM_P2
2022/07/28 00:00:18;;;;;;;6.05;1.83;;;;;;;39.24;23.48;100645.97;4887115;29;20104;-73
2022/07/28 00:02:48;;;;;;;3.40;1.55;;;;;;;39.22;21.37;100650.66;4892575;29;20056;-73
2022/07/28 00:05:17;;;;;;;4.03;1.80;;;;;;;39.16;19.37;100642.13;4889637;29;20467;-74
2022/07/28 00:07:45;;;;;;;3.42;1.50;;;;;;;39.11;20.36;100633.59;4891414;29;20052;-74
2022/07/28 00:10:14;;;;;;;2.30;1.25;;;;;;;39.10;21.20;100633.72;4894113;29;20151;-73
2022/07/28 00:12:42;;;;;;;3.70;1.40;;;;;;;39.08;19.03;100635.72;4895919;29;20052;-73
2022/07/28 00:15:12;;;;;;;3.58;1.50;;;;;;;39.09;20.58;100630.19;4895960;29;20045;-73
2022/07/28 00:17:41;;;;;;;5.53;1.60;;;;;;;39.08;21.40;100644.72;4881821;29;20041;-73
2022/07/28 00:20:12;;;;;;;1.30;1.20;;;;;;;39.03;19.63;100640.72;4889341;29;20053;-72
2022/07/28 00:22:43;;;;;;;4.65;1.25;;;;;;;38.96;19.48;100641.28;4893101;28;20064;-72
2022/07/28 00:25:12;;;;;;;1.98;1.33;;;;;;;38.96;20.30;100640.41;4893390;29;20048;-73
2022/07/28 00:27:41;;;;;;;2.63;1.60;;;;;;;38.90;18.44;100636.41;4886337;29;20060;-73
2022/07/28 00:30:11;;;;;;;1.50;1.30;;;;;;;38.87;19.47;100633.97;4883056;29;20143;-74
2022/07/28 00:32:39;;;;;;;3.65;1.55;;;;;;;38.85;21.03;100633.28;4889856;29;20060;-72
2022/07/28 00:35:11;;;;;;;2.85;1.58;;;;;;;38.80;18.47;100635.53;4892279;29;20041;-71
2022/07/28 00:37:39;;;;;;;3.67;1.70;;;;;;;38.74;19.16;100644.22;4896257;29;20143;-74
2022/07/28 00:40:09;;;;;;;4.97;1.75;;;;;;;38.73;19.25;100639.81;4897737;29;20486;-74
2022/07/28 00:42:38;;;;;;;4.38;3.05;;;;;;;38.74;20.41;100645.06;4890439;29;20049;-73
2022/07/28 00:45:08;;;;;;;2.72;1.58;;;;;;;38.71;20.55;100639.09;4890734;29;20056;-74
2022/07/28 00:47:37;;;;;;;5.63;1.50;;;;;;;38.69;19.82;100646.47;4887789;29;20087;-73
2022/07/28 00:50:06;;;;;;;3.70;1.60;;;;;;;38.69;20.61;100638.38;4893751;29;20168;-72
2022/07/28 00:52:36;;;;;;;2.72;1.58;;;;;;;38.72;22.08;100638.09;4895603;29;20052;-73
2022/07/28 00:55:06;;;;;;;3.40;1.67;;;;;;;38.69;20.91;100631.13;4888532;29;20052;-73
2022/07/28 00:57:35;;;;;;;4.05;2.10;;;;;;;38.66;20.56;100630.53;4891329;29;20473;-73
2022/07/28 01:00:04;;;;;;;6.22;1.67;;;;;;;38.62;23.86;100634.50;4892789;29;20063;-73
2022/07/28 01:02:33;;;;;;;2.72;1.83;;;;;;;38.58;23.24;100630.38;4890423;29;20103;-73
2022/07/28 01:05:02;;;;;;;3.60;1.67;;;;;;;38.53;22.90;100623.56;4893754;29;20072;-72
2022/07/28 01:07:40;;;;;;;4.22;1.70;;;;;;;38.49;23.98;100623.97;4891696;29;20045;-73
2022/07/28 01:10:15;;;;;;;4.40;1.80;;;;;;;38.41;23.83;100619.22;4895793;29;20056;-72
2022/07/28 01:12:52;;;;;;;4.40;1.88;;;;;;;38.35;23.16;100625.19;4909733;29;20044;-73
2022/07/28 01:15:26;;;;;;;3.03;1.85;;;;;;;38.28;24.06;100624.00;4896574;29;20053;-73
2022/07/28 01:18:05;;;;;;;3.83;1.88;;;;;;;38.22;23.19;100620.03;4894553;29;20057;-74
2022/07/28 01:20:38;;;;;;;1.98;1.83;;;;;;;38.16;24.29;100614.31;4891154;29;20067;-74
2022/07/28 01:23:25;;;;;;;4.28;1.73;;;;;;;38.10;25.20;100616.56;4904651;29;20691;-73
2022/07/28 01:26:12;;;;;;;4.40;1.80;;;;;;;38.05;25.17;100620.66;4887865;29;20048;-72
2022/07/28 01:29:00;;;;;;;3.90;2.05;;;;;;;37.97;25.78;100610.53;4893259;29;20052;-74
2022/07/28 01:31:37;;;;;;;2.20;1.77;;;;;;;37.90;26.40;100612.06;4894759;29;20521;-73
2022/07/28 01:34:10;;;;;;;5.30;1.88;;;;;;;37.84;26.31;100608.03;4892823;29;20049;-74
2022/07/28 01:36:43;;;;;;;4.32;1.80;;;;;;;37.77;27.57;100601.47;4896898;29;20053;-74
2022/07/28 01:39:14;;;;;;;7.60;2.20;;;;;;;37.71;26.31;100602.88;4895422;29;20048;-74
2022/07/28 01:41:45;;;;;;;4.60;2.25;;;;;;;37.65;26.08;100595.31;4907667;29;20060;-74
2022/07/28 01:44:22;;;;;;;6.63;2.13;;;;;;;37.60;26.14;100602.97;4899653;29;20072;-74
2022/07/28 01:46:53;;;;;;;3.50;2.10;;;;;;;37.55;27.42;100599.81;4893279;29;20056;-75
2022/07/28 01:49:22;;;;;;;;;;;;;;;37.48;26.95;100599.44;4894524;29;20467;-74
2022/07/28 01:51:53;;;;;;;4.18;2.13;;;;;;;37.43;27.85;100590.91;4891883;29;20440;-73
2022/07/28 01:54:23;;;;;;;4.55;2.08;;;;;;;37.39;28.28;100591.31;4892839;29;20056;-73
2022/07/28 01:56:53;;;;;;;10.00;2.42;;;;;;;37.28;27.49;100587.66;4895315;29;20064;-72
2022/07/28 01:59:24;;;;;;;4.10;2.03;;;;;;;37.22;28.31;100584.63;4892599;29;20419;-72
2022/07/28 02:01:54;;;;;;;3.47;2.20;;;;;;;37.15;27.76;100587.00;4896147;29;20051;-72
2022/07/28 02:04:24;;;;;;;3.03;2.22;;;;;;;37.07;28.50;100584.13;4891827;29;20128;-73
2022/07/28 02:06:54;;;;;;;5.43;2.10;;;;;;;37.00;28.34;100593.69;4888001;29;20555;-73
2022/07/28 02:09:24;;;;;;;4.60;2.22;;;;;;;36.93;28.11;100585.25;4895507;29;20590;-73
2022/07/28 02:11:55;;;;;;;7.25;2.17;;;;;;;36.85;28.37;100580.50;4897132;29;20052;-72
2022/07/28 02:14:25;;;;;;;4.53;2.15;;;;;;;36.77;28.23;100582.16;4896169;29;20146;-73
2022/07/28 02:16:59;;;;;;;4.65;2.75;;;;;;;36.67;28.42;100584.72;4892099;29;20486;-73
2022/07/28 02:19:28;;;;;;;9.88;2.22;;;;;;;36.59;28.38;100581.84;4891245;29;20120;-73
2022/07/28 02:21:58;;;;;;;3.13;2.50;;;;;;;36.52;28.21;100577.91;4894113;28;20537;-73
2022/07/28 02:24:29;;;;;;;5.15;1.80;;;;;;;36.38;29.21;100585.28;4891345;29;20055;-73
2022/07/28 02:27:00;;;;;;;2.10;1.90;;;;;;;36.24;29.44;100585.53;4887224;29;20056;-73
2022/07/28 02:29:32;;;;;;;2.97;2.25;;;;;;;36.14;29.36;100584.59;4892307;29;20049;-74
2022/07/28 02:32:07;;;;;;;2.38;2.15;;;;;;;36.00;29.71;100593.75;4888425;29;20053;-74
2022/07/28 02:34:38;;;;;;;2.28;2.05;;;;;;;35.89;29.77;100591.91;4892974;29;20108;-73
2022/07/28 02:37:08;;;;;;;;;;;;;;;35.80;29.64;100589.94;4895394;29;20045;-74
2022/07/28 02:39:44;;;;;;;3.25;2.30;;;;;;;35.69;30.66;100590.81;4900690;29;19927;-74
2022/07/28 02:42:18;;;;;;;2.70;2.38;;;;;;;35.58;31.59;100594.31;4889987;29;20543;-74
2022/07/28 02:44:51;;;;;;;5.93;2.33;;;;;;;35.47;31.28;100593.44;4889196;29;20137;-74
2022/07/28 02:47:26;;;;;;;4.10;2.08;;;;;;;35.37;33.38;100598.66;4888727;29;20049;-74
2022/07/28 02:49:57;;;;;;;2.55;1.90;;;;;;;35.23;33.14;100592.53;4889529;29;20064;-73
2022/07/28 02:52:27;;;;;;;5.28;2.47;;;;;;;35.11;33.16;100593.44;4893539;29;20661;-73
2022/07/28 02:54:58;;;;;;;4.05;2.20;;;;;;;34.99;33.19;100589.84;4893310;29;20053;-73
2022/07/28 02:57:28;;;;;;;4.68;2.70;;;;;;;34.89;34.65;100598.69;4900964;29;20484;-75
2022/07/28 02:59:58;;;;;;;3.30;2.22;;;;;;;34.77;33.98;100593.31;4897661;29;20053;-74
2022/07/28 03:02:33;;;;;;;5.97;2.55;;;;;;;34.66;34.02;100604.00;4898308;29;20059;-74
2022/07/28 03:05:06;;;;;;;3.60;2.53;;;;;;;34.57;35.08;100601.94;4893863;29;20056;-74
2022/07/28 03:07:36;;;;;;;5.78;1.92;;;;;;;34.47;35.30;100598.22;4887709;29;20064;-73
2022/07/28 03:10:06;;;;;;;3.40;2.00;;;;;;;34.34;35.71;100609.88;4900700;29;20071;-73
2022/07/28 03:12:34;;;;;;;5.07;2.67;;;;;;;34.25;35.07;100623.06;4902136;29;20484;-73
2022/07/28 03:15:03;;;;;;;6.63;2.30;;;;;;;34.13;35.95;100620.34;4892244;29;20491;-73
2022/07/28 03:17:33;;;;;;;5.68;2.58;;;;;;;34.03;36.23;100623.75;4891883;29;20049;-73
2022/07/28 03:20:02;;;;;;;7.85;2.20;;;;;;;33.92;36.45;100628.03;4892889;29;20075;-74
2022/07/28 03:22:30;;;;;;;9.77;3.30;;;;;;;33.80;36.98;100634.28;4896534;29;20052;-73
2022/07/28 03:25:00;;;;;;;2.60;1.58;;;;;;;33.59;36.33;100623.22;4890631;29;20051;-74
2022/07/28 03:27:34;;;;;;;4.90;1.88;;;;;;;33.38;36.78;100628.22;4890339;29;20052;-72
2022/07/28 03:30:05;;;;;;;5.07;2.20;;;;;;;33.15;39.54;100644.03;4882639;29;20061;-72
2022/07/28 03:32:39;;;;;;;5.25;2.17;;;;;;;32.91;39.92;100632.22;4885062;29;20057;-73
2022/07/28 03:35:09;;;;;;;3.47;1.90;;;;;;;32.74;39.40;100639.56;4881564;29;20052;-73
2022/07/28 03:37:42;;;;;;;7.85;2.75;;;;;;;32.63;39.57;100636.72;4888990;29;20052;-73
2022/07/28 03:40:13;;;;;;;5.90;2.30;;;;;;;32.54;39.73;100648.88;4888572;29;20112;-75
2022/07/28 03:42:48;;;;;;;8.27;1.90;;;;;;;32.45;40.02;100637.88;4883886;29;20064;-73
2022/07/28 03:45:18;;;;;;;5.40;2.05;;;;;;;32.34;39.53;100636.75;4891327;29;20292;-73
2022/07/28 03:48:00;;;;;;;5.43;2.10;;;;;;;32.26;39.75;100648.88;4887019;29;20136;-74
2022/07/28 03:50:30;;;;;;;3.22;1.80;;;;;;;32.17;40.18;100655.69;4892559;29;20582;-74
2022/07/28 03:53:01;;;;;;;3.85;1.67;;;;;;;32.06;40.54;100658.16;4895421;29;20049;-73
2022/07/28 03:55:30;;;;;;;5.28;1.70;;;;;;;31.97;39.99;100659.59;4885401;29;20061;-75
2022/07/28 03:57:58;;;;;;;5.97;1.83;;;;;;;31.88;41.11;100658.28;4886904;29;20048;-75
2022/07/28 04:00:27;;;;;;;6.57;1.67;;;;;;;31.78;41.37;100656.28;4891147;29;20056;-72
2022/07/28 04:02:55;;;;;;;4.80;1.73;;;;;;;31.62;42.53;100667.06;4891971;29;20060;-70
2022/07/28 04:05:25;;;;;;;13.10;2.00;;;;;;;31.50;42.53;100666.00;4892468;29;20126;-71
2022/07/28 04:07:54;;;;;;;2.13;1.80;;;;;;;31.34;43.38;100660.66;4886567;29;20539;-73
2022/07/28 04:10:22;;;;;;;6.03;1.65;;;;;;;31.16;42.56;100657.25;4894193;29;20055;-72
2022/07/28 04:12:53;;;;;;;3.40;1.77;;;;;;;30.95;44.06;100653.13;4883912;29;20116;-73
2022/07/28 04:15:23;;;;;;;3.00;1.80;;;;;;;30.85;44.13;100666.16;4891596;29;20049;-73
2022/07/28 04:17:52;;;;;;;3.88;2.10;;;;;;;30.76;44.29;100663.97;4885782;29;20049;-72
2022/07/28 04:20:22;;;;;;;5.20;1.80;;;;;;;30.65;44.61;100668.13;4887111;29;20100;-72
2022/07/28 04:22:58;;;;;;;2.58;1.52;;;;;;;30.58;44.17;100669.41;4884244;29;20061;-74
2022/07/28 04:25:28;;;;;;;5.40;1.65;;;;;;;30.54;43.59;100669.66;4895102;29;20406;-74
2022/07/28 04:27:57;;;;;;;4.00;1.77;;;;;;;30.49;43.58;100672.59;4896648;29;20193;-74
2022/07/28 04:30:26;;;;;;;3.50;1.95;;;;;;;30.43;44.85;100678.25;4893586;29;20116;-75
2022/07/28 04:32:56;;;;;;;3.47;1.90;;;;;;;30.34;46.54;100684.94;4891913;29;20446;-75
2022/07/28 04:35:26;;;;;;;4.63;1.90;;;;;;;30.22;44.89;100686.44;4897587;29;20080;-76
2022/07/28 04:37:57;;;;;;;5.90;1.58;;;;;;;30.10;44.13;100683.56;4893386;29;20040;-74
2022/07/28 04:40:28;;;;;;;3.20;1.90;;;;;;;30.07;43.93;100681.91;4889385;29;20088;-74
2022/07/28 04:42:57;;;;;;;5.67;2.23;;;;;;;30.03;44.14;100689.25;4892485;29;20123;-74
2022/07/28 04:45:25;;;;;;;4.38;1.85;;;;;;;30.01;44.21;100692.94;4887873;29;20056;-74
2022/07/28 04:47:54;;;;;;;3.53;1.75;;;;;;;29.97;44.54;100692.22;4897324;29;20051;-73
2022/07/28 04:50:22;;;;;;;4.07;1.60;;;;;;;29.94;45.38;100702.19;4896762;29;20052;-74
2022/07/28 04:52:51;;;;;;;4.07;1.80;;;;;;;29.89;46.17;100704.22;4882316;29;20517;-74
2022/07/28 04:55:19;;;;;;;5.75;1.70;;;;;;;29.83;46.61;100700.94;4887641;29;20057;-73
2022/07/28 04:57:49;;;;;;;4.00;1.50;;;;;;;29.78;43.43;100708.31;4891328;29;20045;-73
2022/07/28 05:00:18;;;;;;;4.68;1.90;;;;;;;29.75;46.88;100710.28;4901903;29;20056;-73
2022/07/28 05:02:47;;;;;;;10.18;1.90;;;;;;;29.70;45.92;100710.50;4891096;29;20044;-74
2022/07/28 05:05:16;;;;;;;4.15;1.20;;;;;;;29.65;42.25;100707.19;4903080;29;20063;-73
2022/07/28 05:07:44;;;;;;;5.28;1.30;;;;;;;29.63;42.23;100703.75;4894594;29;20099;-73
2022/07/28 05:10:13;;;;;;;2.03;1.25;;;;;;;29.60;45.62;100709.25;4891673;29;20055;-73
2022/07/28 05:12:44;;;;;;;2.83;1.52;;;;;;;29.53;40.29;100703.34;4892369;29;20056;-73
2022/07/28 05:15:14;;;;;;;1.27;0.90;;;;;;;29.50;38.55;100711.47;4887280;29;20048;-73
2022/07/28 05:17:42;;;;;;;2.15;1.23;;;;;;;29.45;39.17;100711.72;4892567;29;20391;-74
2022/07/28 05:20:12;;;;;;;2.60;1.00;;;;;;;29.42;40.63;100706.53;4894463;29;20503;-73
2022/07/28 05:22:52;;;;;;;1.50;1.10;;;;;;;29.37;39.46;100705.91;4902212;28;20547;-73
2022/07/28 05:25:22;;;;;;;2.22;1.10;;;;;;;29.34;39.77;100713.19;4885911;29;20051;-73
2022/07/28 05:27:51;;;;;;;2.30;1.00;;;;;;;29.27;38.10;100707.28;4892698;29;20104;-72
2022/07/28 05:30:22;;;;;;;2.10;0.80;;;;;;;29.22;38.65;100701.34;4880841;29;20471;-72
2022/07/28 05:32:52;;;;;;;1.10;0.80;;;;;;;29.16;37.16;100704.28;4880011;29;20534;-72
2022/07/28 05:35:21;;;;;;;0.80;0.65;;;;;;;29.12;37.10;100708.06;4885125;29;20084;-73
2022/07/28 05:37:49;;;;;;;4.15;1.17;;;;;;;29.08;38.00;100711.81;4886928;29;20104;-73
2022/07/28 05:40:18;;;;;;;1.98;0.90;;;;;;;29.01;36.08;100713.88;4892158;29;20121;-72
2022/07/28 05:42:47;;;;;;;2.35;0.85;;;;;;;28.96;33.95;100707.91;4885177;29;20152;-73
2022/07/28 05:45:16;;;;;;;1.50;1.02;;;;;;;28.95;34.45;100715.00;4888720;29;20135;-73
2022/07/28 05:47:48;;;;;;;2.75;0.95;;;;;;;28.89;36.78;100704.69;4890366;29;20060;-73
2022/07/28 05:50:16;;;;;;;;;;;;;;;28.89;36.56;100717.13;4888996;29;20677;-74
2022/07/28 05:52:45;;;;;;;4.20;0.90;;;;;;;28.86;32.91;100711.94;4893619;29;19927;-74
2022/07/28 05:55:14;;;;;;;2.50;0.70;;;;;;;28.84;37.01;100714.69;4884981;29;20078;-73
2022/07/28 05:57:43;;;;;;;1.40;0.70;;;;;;;28.78;36.12;100714.97;4896093;29;20104;-72
2022/07/28 06:00:13;;;;;;;1.88;0.77;;;;;;;28.74;36.87;100713.38;4893080;29;20045;-73
2022/07/28 06:02:44;;;;;;;3.20;0.90;;;;;;;28.71;35.95;100721.53;4897717;29;20071;-74
2022/07/28 06:05:16;;;;;;;8.73;0.90;;;;;;;28.68;34.42;100713.66;4895469;29;20128;-72
2022/07/28 06:07:45;;;;;;;1.25;0.90;;;;;;;28.64;38.34;100720.94;4891615;29;20055;-71
2022/07/28 06:10:15;;;;;;;1.38;0.77;;;;;;;28.59;32.17;100713.16;4899089;29;20113;-72
2022/07/28 06:12:44;;;;;;;1.92;0.68;;;;;;;28.53;38.16;100721.44;4894033;29;20056;-73
2022/07/28 06:15:14;;;;;;;2.85;0.95;;;;;;;28.42;37.78;100713.91;4894826;29;20487;-73
2022/07/28 06:17:43;;;;;;;2.38;0.80;;;;;;;28.36;35.47;100723.97;4893386;29;20108;-73
2022/07/28 06:20:14;;;;;;;3.55;1.15;;;;;;;28.33;35.20;100718.78;4886246;29;20053;-73
2022/07/28 06:22:44;;;;;;;3.80;1.10;;;;;;;28.29;36.50;100723.38;4899543;29;20511;-73
2022/07/28 06:25:16;;;;;;;5.57;1.15;;;;;;;28.28;36.90;100720.78;4896275;29;20052;-73
2022/07/28 06:27:48;;;;;;;4.60;2.22;;;;;;;28.25;37.69;100720.94;4894568;29;20515;-73
2022/07/28 06:30:16;;;;;;;;;;;;;;;28.22;37.42;100721.06;4895796;29;20056;-73
2022/07/28 06:32:45;;;;;;;2.05;1.08;;;;;;;28.07;38.22;100722.59;4898917;29;19928;-74
2022/07/28 06:35:16;;;;;;;2.03;1.00;;;;;;;27.92;37.61;100718.81;4889016;29;20052;-73
2022/07/28 06:37:45;;;;;;;5.00;0.93;;;;;;;27.83;38.09;100722.69;4895895;29;20160;-73
2022/07/28 06:40:14;;;;;;;2.88;1.10;;;;;;;27.77;39.77;100721.16;4893799;29;20061;-73
2022/07/28 06:42:44;;;;;;;4.53;1.23;;;;;;;27.72;37.96;100725.81;4886070;29;20057;-74
2022/07/28 06:45:14;;;;;;;5.90;1.30;;;;;;;27.66;42.60;100734.06;4892884;29;20124;-73
2022/07/28 06:47:43;;;;;;;3.65;1.33;;;;;;;27.60;45.69;100730.78;4888113;29;20105;-73
2022/07/28 06:50:12;;;;;;;4.78;1.40;;;;;;;27.54;46.08;100737.22;4899982;29;20060;-73
2022/07/28 06:52:42;;;;;;;8.85;1.85;;;;;;;27.46;46.49;100734.00;4894954;29;20152;-73
2022/07/28 06:55:11;;;;;;;5.15;1.55;;;;;;;27.37;46.61;100732.59;4890232;29;20068;-73
2022/07/28 06:57:39;;;;;;;4.22;1.63;;;;;;;27.22;47.65;100742.06;4885959;29;20049;-73
2022/07/28 07:00:10;;;;;;;4.30;1.60;;;;;;;27.10;47.82;100739.88;4893443;29;20053;-73
2022/07/28 07:02:40;;;;;;;4.47;1.83;;;;;;;26.95;47.93;100746.63;4894359;29;20530;-73
2022/07/28 07:05:10;;;;;;;4.85;1.63;;;;;;;26.80;48.43;100755.16;4885042;29;20076;-73
2022/07/28 07:07:38;;;;;;;2.58;1.58;;;;;;;26.67;48.92;100753.00;4894295;29;20442;-73
2022/07/28 07:10:10;;;;;;;3.28;1.63;;;;;;;26.62;48.76;100751.41;4893014;29;20066;-73
2022/07/28 07:12:38;;;;;;;4.07;1.60;;;;;;;26.57;48.78;100761.34;4900447;29;20064;-73
2022/07/28 07:15:08;;;;;;;2.25;1.20;;;;;;;26.52;49.48;100762.34;4890954;29;20040;-72
2022/07/28 07:17:37;;;;;;;2.83;1.48;;;;;;;26.50;50.20;100766.88;4891230;29;20679;-73
2022/07/28 07:20:07;;;;;;;3.40;1.73;;;;;;;26.42;49.63;100768.91;4892083;29;20060;-73
2022/07/28 07:22:35;;;;;;;3.50;1.58;;;;;;;26.35;50.13;100771.84;4891570;29;20605;-73
2022/07/28 07:25:13;;;;;;;4.50;1.30;;;;;;;26.26;50.63;100773.03;4894424;29;20053;-73
2022/07/28 07:27:41;;;;;;;4.35;1.40;;;;;;;26.02;53.04;100759.72;4885806;29;20105;-73
2022/07/28 07:30:11;;;;;;;4.63;1.42;;;;;;;25.93;51.52;100770.66;4895644;29;20111;-73
2022/07/28 07:32:41;;;;;;;2.03;1.30;;;;;;;25.83;51.14;100766.53;4890806;29;20056;-72
2022/07/28 07:35:11;;;;;;;4.10;1.40;;;;;;;25.78;53.45;100769.34;4892119;29;20052;-73
2022/07/28 07:37:39;;;;;;;4.20;1.60;;;;;;;25.75;53.60;100776.50;4887943;29;20108;-72
2022/07/28 07:40:10;;;;;;;4.78;1.40;;;;;;;25.71;54.27;100771.31;4891149;29;20128;-72
2022/07/28 07:42:40;;;;;;;2.97;1.17;;;;;;;25.67;54.21;100772.34;4894379;29;20099;-72
2022/07/28 07:45:09;;;;;;;4.03;1.38;;;;;;;25.62;53.56;100761.03;4896029;29;20486;-72
2022/07/28 07:47:38;;;;;;;3.10;1.40;;;;;;;25.52;53.95;100754.31;4891098;29;20105;-73
2022/07/28 07:50:07;;;;;;;2.80;1.60;;;;;;;25.38;54.11;100760.06;4893200;29;20049;-73
2022/07/28 07:52:36;;;;;;;5.35;1.52;;;;;;;25.32;54.36;100759.38;4887852;29;20513;-73
2022/07/28 07:55:05;;;;;;;6.00;1.20;;;;;;;25.26;54.24;100761.28;4891460;29;20140;-74
2022/07/28 07:57:33;;;;;;;2.75;1.42;;;;;;;25.20;53.51;100761.50;4891011;29;20056;-72
2022/07/28 08:00:04;;;;;;;7.78;1.52;;;;;;;25.13;54.68;100765.22;4893191;29;20052;-72
2022/07/28 08:02:33;;;;;;;6.80;1.63;;;;;;;25.07;54.58;100768.91;4894659;29;20411;-73
2022/07/28 08:05:01;;;;;;;2.53;1.30;;;;;;;24.99;54.34;100773.59;4886862;29;20068;-73
2022/07/28 08:07:30;;;;;;;5.20;1.55;;;;;;;24.92;54.33;100769.34;4893304;29;20108;-73
2022/07/28 08:09:58;;;;;;;3.25;1.52;;;;;;;24.85;54.16;100770.47;4881756;29;20464;-73
2022/07/28 08:12:27;;;;;;;3.25;1.30;;;;;;;24.78;54.35;100771.56;4900900;29;20059;-73
2022/07/28 08:14:56;;;;;;;3.30;1.48;;;;;;;24.73;55.85;100763.75;4898360;29;20500;-72
2022/07/28 08:17:26;;;;;;;3.10;1.20;;;;;;;24.69;57.14;100767.38;4899046;29;20059;-72
2022/07/28 08:19:54;;;;;;;5.22;1.52;;;;;;;24.65;55.45;100771.06;4891370;29;20053;-72
2022/07/28 08:22:23;;;;;;;3.40;1.60;;;;;;;24.59;55.72;100774.72;4889365;28;20049;-73
2022/07/28 08:24:52;;;;;;;4.13;1.63;;;;;;;24.50;55.10;100763.56;4886988;29;20183;-72
2022/07/28 08:27:20;;;;;;;5.13;2.65;;;;;;;24.41;56.20;100767.28;4894119;29;20056;-75
2022/07/28 08:29:49;;;;;;;4.05;1.65;;;;;;;24.34;55.96;100761.28;4892097;29;20061;-73
2022/07/28 08:32:18;;;;;;;1.92;1.40;;;;;;;24.23;56.25;100763.34;4891474;29;20060;-73
2022/07/28 08:34:48;;;;;;;4.22;1.52;;;;;;;24.12;57.00;100760.13;4893366;29;20112;-72
2022/07/28 08:37:16;;;;;;;2.35;1.33;;;;;;;24.07;56.38;100765.53;4889587;29;20052;-73
2022/07/28 08:39:45;;;;;;;5.20;1.42;;;;;;;24.02;56.52;100763.00;4892459;29;20112;-73
2022/07/28 08:42:16;;;;;;;2.28;1.50;;;;;;;23.97;57.37;100767.56;4889451;29;20041;-73
2022/07/28 08:44:55;;;;;;;2.55;1.38;;;;;;;23.91;59.03;100762.41;4885441;29;20059;-74
2022/07/28 08:47:26;;;;;;;3.08;1.30;;;;;;;23.80;60.21;100759.19;4889220;29;20122;-74
2022/07/28 08:49:59;;;;;;;2.28;1.33;;;;;;;23.71;61.29;100759.38;4889693;29;20529;-73
2022/07/28 08:52:31;;;;;;;5.28;1.50;;;;;;;23.58;60.97;100759.69;4885858;29;20084;-73
2022/07/28 08:55:02;;;;;;;2.83;1.40;;;;;;;23.52;61.19;100759.81;4890022;29;20495;-73
2022/07/28 08:57:35;;;;;;;3.88;1.33;;;;;;;23.50;61.02;100756.38;4883585;29;20045;-72
2022/07/28 09:00:04;;;;;;;4.97;1.60;;;;;;;23.51;60.54;100757.25;4890908;29;20056;-73
2022/07/28 09:02:36;;;;;;;2.78;1.45;;;;;;;23.50;60.24;100755.50;4884874;29;20794;-73
2022/07/28 09:05:08;;;;;;;2.70;1.50;;;;;;;23.48;60.63;100752.00;4893656;29;20641;-71
2022/07/28 09:07:37;;;;;;;3.67;1.30;;;;;;;23.45;59.91;100765.31;4891251;29;20041;-72
2022/07/28 09:10:07;;;;;;;3.25;1.50;;;;;;;23.40;59.71;100757.50;4889245;29;20284;-72
2022/07/28 09:12:35;;;;;;;5.97;1.65;;;;;;;23.36;59.28;100759.31;4882210;29;20521;-72
2022/07/28 09:15:04;;;;;;;4.88;1.77;;;;;;;23.31;59.29;100755.94;4890847;29;20044;-72
2022/07/28 09:17:34;;;;;;;4.60;1.88;;;;;;;23.25;58.95;100752.56;4889121;29;20056;-72
2022/07/28 09:20:03;;;;;;;3.42;1.38;;;;;;;23.15;60.07;100758.06;4885157;29;20057;-73
2022/07/28 09:22:34;;;;;;;1.60;1.40;;;;;;;23.04;61.11;100759.19;4896967;29;20072;-72
2022/07/28 09:25:03;;;;;;;5.05;1.55;;;;;;;22.98;60.36;100752.25;4894703;29;20053;-71
2022/07/28 09:30:53;;;;;;;3.22;1.38;;;;;;;22.91;60.74;100750.66;4896764;29;20094;-73
2022/07/28 09:33:26;;;;;;;2.42;1.48;;;;;;;22.87;60.46;100751.63;4892459;29;20061;-73
2022/07/28 09:35:56;;;;;;;4.85;1.33;;;;;;;22.87;61.40;100755.13;4899729;29;20049;-73
2022/07/28 09:38:27;;;;;;;5.32;1.60;;;;;;;22.88;64.02;100758.63;4890583;29;20495;-73
2022/07/28 09:41:00;;;;;;;8.55;1.65;;;;;;;22.87;64.38;100760.41;4892899;29;20058;-73
2022/07/28 09:43:36;;;;;;;5.40;1.80;;;;;;;22.72;64.27;100756.31;4895792;29;20061;-73
2022/07/28 09:46:07;;;;;;;2.72;1.33;;;;;;;22.72;64.34;100756.31;4894531;29;20057;-73
2022/07/28 09:48:36;;;;;;;2.95;1.40;;;;;;;22.69;64.76;100759.00;4897254;29;20053;-72
2022/07/28 09:51:14;;;;;;;4.93;1.77;;;;;;;22.64;64.04;100760.88;4896268;29;20451;-72
2022/07/28 09:53:44;;;;;;;1.90;1.25;;;;;;;22.61;63.50;100779.41;4892046;29;20065;-72
2022/07/28 09:56:13;;;;;;;3.03;1.50;;;;;;;22.56;62.72;100770.69;4893837;29;20076;-72
2022/07/28 09:58:52;;;;;;;2.42;1.30;;;;;;;22.48;62.26;100770.88;4891599;29;20049;-72
2022/07/28 10:01:21;;;;;;;4.80;1.52;;;;;;;22.34;64.10;100776.41;4892056;29;20455;-73
2022/07/28 10:03:53;;;;;;;4.00;1.27;;;;;;;22.25;63.75;100779.22;4892704;29;20059;-73
2022/07/28 10:06:29;;;;;;;2.70;1.15;;;;;;;22.21;63.99;100776.63;4894694;29;20053;-73
2022/07/28 10:09:01;;;;;;;3.60;1.50;;;;;;;22.20;64.13;100775.75;4893030;29;20057;-73
2022/07/28 10:11:30;;;;;;;3.63;1.60;;;;;;;22.17;64.81;100775.78;4895657;29;20727;-73
2022/07/28 10:14:01;;;;;;;3.00;1.50;;;;;;;22.15;64.61;100780.22;4887902;29;20468;-73
2022/07/28 10:16:32;;;;;;;4.15;1.40;;;;;;;22.13;65.03;100779.41;4894115;29;20567;-73
2022/07/28 10:19:02;;;;;;;3.45;1.63;;;;;;;22.10;65.27;100790.84;4898571;29;20087;-73
2022/07/28 10:21:34;;;;;;;2.20;1.40;;;;;;;22.08;65.64;100789.13;4889583;29;20049;-72
2022/07/28 10:24:07;;;;;;;3.13;2.05;;;;;;;22.04;65.33;100795.38;4877357;29;20486;-73
2022/07/28 10:26:43;;;;;;;2.70;1.60;;;;;;;21.93;65.48;100791.16;4867811;29;20074;-74
2022/07/28 10:29:30;;;;;;;5.47;1.60;;;;;;;21.84;65.99;100788.66;4873722;29;20048;-72
2022/07/28 10:32:04;;;;;;;3.40;1.38;;;;;;;21.80;66.57;100788.75;4866358;29;20057;-73
2022/07/28 10:34:38;;;;;;;2.95;1.38;;;;;;;21.72;67.95;100783.59;4869016;29;20426;-73
2022/07/28 10:37:11;;;;;;;3.25;1.40;;;;;;;21.65;68.12;100780.19;4872572;29;20075;-73
2022/07/28 10:39:45;;;;;;;4.18;1.20;;;;;;;21.62;68.12;100785.50;4871939;29;20052;-73
2022/07/28 10:42:15;;;;;;;2.67;1.60;;;;;;;21.54;68.95;100775.09;4869142;29;20106;-72
2022/07/28 10:44:45;;;;;;;3.20;1.50;;;;;;;21.59;68.83;100789.97;4869618;29;20092;-73
2022/07/28 10:47:14;;;;;;;2.78;1.30;;;;;;;21.56;67.87;100780.34;4876025;29;20049;-73
2022/07/28 10:49:43;;;;;;;2.72;1.50;;;;;;;21.54;68.05;100783.00;4874149;29;20492;-73
2022/07/28 10:52:16;;;;;;;2.00;1.33;;;;;;;21.48;67.27;100783.06;4863408;29;20492;-72
2022/07/28 10:55:04;;;;;;;3.20;1.60;;;;;;;21.41;67.21;100786.69;4862070;29;20136;-73
2022/07/28 10:57:33;;;;;;;2.60;1.00;;;;;;;21.37;66.63;100790.22;4871928;29;20266;-72
2022/07/28 11:00:12;;;;;;;5.97;1.42;;;;;;;21.30;66.38;100783.31;4874001;29;20053;-73
2022/07/28 11:02:53;;;;;;;3.58;1.80;;;;;;;21.18;66.23;100783.50;4883138;29;20049;-73
2022/07/28 11:05:30;;;;;;;7.07;1.60;;;;;;;21.01;67.69;100781.97;4871186;29;20053;-71
2022/07/28 11:08:01;;;;;;;4.25;1.67;;;;;;;21.02;67.43;100786.31;4869726;29;20783;-72
2022/07/28 11:10:43;;;;;;;4.15;1.73;;;;;;;21.00;67.62;100785.47;4875348;29;20127;-72
2022/07/28 11:13:25;;;;;;;2.85;1.27;;;;;;;20.98;67.80;100782.03;4864187;29;20064;-73
2022/07/28 11:15:54;;;;;;;1.85;1.27;;;;;;;20.97;67.88;100782.91;4877251;29;20053;-72
2022/07/28 11:18:23;;;;;;;3.05;1.40;;;;;;;20.96;68.08;100782.91;4875594;29;20061;-72
2022/07/28 11:21:10;;;;;;;2.47;1.50;;;;;;;20.95;68.59;100791.69;4870654;29;20060;-71
2022/07/28 11:23:45;;;;;;;2.97;1.63;;;;;;;20.92;69.14;100792.63;4895688;29;20060;-72
2022/07/28 11:26:40;;;;;;;4.20;1.20;;;;;;;20.88;68.22;100786.50;4890157;29;20107;-71
2022/07/28 11:29:19;;;;;;;5.93;1.45;;;;;;;20.84;67.77;100791.81;4895501;29;20111;-71
2022/07/28 11:32:06;;;;;;;3.60;1.50;;;;;;;20.79;68.41;100786.63;4889637;29;20546;-73
2022/07/28 11:35:07;;;;;;;3.80;1.60;;;;;;;20.76;69.09;100784.03;4892638;29;20048;-72
2022/07/28 11:38:08;;;;;;;2.70;1.40;;;;;;;20.74;69.79;100788.44;4891052;29;20144;-72
2022/07/28 11:40:38;;;;;;;2.88;1.30;;;;;;;20.71;70.20;100783.22;4888039;29;20054;-72
2022/07/28 11:43:42;;;;;;;5.88;1.42;;;;;;;20.69;69.92;100785.88;4892020;29;20049;-72
2022/07/28 11:46:36;;;;;;;2.05;1.20;;;;;;;20.65;70.04;100783.28;4894233;29;20598;-72
2022/07/28 11:49:23;;;;;;;1.85;1.33;;;;;;;20.63;70.70;100787.69;4883894;29;20040;-71